createdAt,value
2018-06-19T00:02:31.682Z,5.73
2018-06-19T00:05:04.656Z,5.73
2018-06-19T00:07:37.734Z,3.60
2018-06-19T00:10:10.996Z,3.67
2018-06-19T00:12:44.830Z,4.77
2018-06-19T00:15:17.913Z,2.33
2018-06-19T00:17:51.193Z,4.70
2018-06-19T00:20:24.275Z,5.60
2018-06-19T00:22:57.356Z,3.10
2018-06-19T00:25:30.331Z,6.70
2018-06-19T00:28:03.171Z,4.57
2018-06-19T00:30:36.279Z,8.03
2018-06-19T00:35:54.888Z,7.73
2018-06-19T00:38:28.003Z,5.30
2018-06-19T00:41:01.064Z,6.27
2018-06-19T00:43:35.052Z,4.80
2018-06-19T00:46:09.078Z,7.80
2018-06-19T00:48:42.055Z,5.13
2018-06-19T00:51:15.021Z,4.57
2018-06-19T00:53:48.512Z,5.63
2018-06-19T00:56:57.073Z,4.23
2018-06-19T00:59:30.297Z,4.97
2018-06-19T01:02:04.730Z,3.70
2018-06-19T01:04:38.839Z,5.07
2018-06-19T01:07:13.225Z,5.03
2018-06-19T01:09:47.553Z,5.27
2018-06-19T01:12:20.654Z,4.60
2018-06-19T01:14:53.550Z,4.47
2018-06-19T01:17:27.787Z,6.63
2018-06-19T01:20:01.689Z,5.33
2018-06-19T01:22:34.856Z,4.23
2018-06-19T01:25:08.046Z,4.27
2018-06-19T01:27:41.515Z,4.20
2018-06-19T01:30:14.571Z,3.60
2018-06-19T01:32:47.706Z,4.80
2018-06-19T01:35:23.786Z,3.93
2018-06-19T01:37:57.020Z,3.23
2018-06-19T01:40:31.068Z,4.40
2018-06-19T01:43:04.889Z,4.30
2018-06-19T01:45:38.247Z,5.33
2018-06-19T01:48:11.451Z,5.53
2018-06-19T01:50:44.723Z,4.97
2018-06-19T01:53:17.788Z,7.20
2018-06-19T01:55:50.880Z,6.03
2018-06-19T01:58:24.071Z,6.63
2018-06-19T02:00:57.070Z,6.37
2018-06-19T02:03:30.141Z,2.50
2018-06-19T02:06:03.048Z,6.23
2018-06-19T02:08:36.162Z,4.87
2018-06-19T02:11:09.222Z,9.30
2018-06-19T02:13:42.356Z,5.63
2018-06-19T02:16:15.509Z,5.07
2018-06-19T02:18:48.731Z,4.27
2018-06-19T02:21:21.899Z,3.80
2018-06-19T02:23:54.962Z,5.67
2018-06-19T02:26:28.158Z,5.17
2018-06-19T02:29:01.434Z,4.00
2018-06-19T02:31:34.476Z,5.53
2018-06-19T02:34:07.488Z,5.33
2018-06-19T02:36:40.435Z,3.83
2018-06-19T02:39:14.154Z,7.03
2018-06-19T02:41:47.383Z,3.93
2018-06-19T02:44:20.719Z,4.30
2018-06-19T02:46:53.774Z,4.53
2018-06-19T02:49:26.941Z,4.93
2018-06-19T02:52:00.066Z,4.67
2018-06-19T02:54:34.320Z,3.67
2018-06-19T02:57:08.086Z,6.30
2018-06-19T02:59:41.078Z,6.10
2018-06-19T03:02:13.946Z,4.87
2018-06-19T03:04:46.779Z,6.67
2018-06-19T03:07:19.790Z,5.83
2018-06-19T03:09:52.924Z,8.60
2018-06-19T03:12:25.757Z,4.37
2018-06-19T03:14:58.767Z,6.33
2018-06-19T03:17:32.514Z,7.27
2018-06-19T03:22:56.067Z,10.30
2018-06-19T03:28:19.497Z,10.53
2018-06-19T03:30:52.479Z,8.63
2018-06-19T03:33:25.645Z,10.37
2018-06-19T03:35:59.637Z,11.77
2018-06-19T03:38:32.671Z,11.07
2018-06-19T03:41:06.242Z,10.83
2018-06-19T03:43:39.253Z,16.30
2018-06-19T03:46:12.229Z,11.67
2018-06-19T03:48:45.400Z,8.80
2018-06-19T03:51:18.405Z,11.73
2018-06-19T03:53:53.529Z,10.80
2018-06-19T03:59:09.796Z,13.00
2018-06-19T04:01:43.255Z,12.83
2018-06-19T04:04:16.340Z,13.60
2018-06-19T04:06:50.178Z,11.30
2018-06-19T04:09:23.420Z,12.87
2018-06-19T04:12:00.463Z,15.63
2018-06-19T04:17:21.171Z,15.13
2018-06-19T04:22:35.053Z,15.10
2018-06-19T04:27:49.824Z,15.37
2018-06-19T04:33:06.118Z,11.93
2018-06-19T04:35:39.214Z,18.03
2018-06-19T04:38:12.299Z,14.73
2018-06-19T04:40:45.325Z,17.67
2018-06-19T04:43:19.188Z,19.60
2018-06-19T04:45:52.270Z,15.83
2018-06-19T04:48:25.410Z,16.97
2018-06-19T04:50:58.720Z,15.20
2018-06-19T04:53:31.863Z,14.93
2018-06-19T04:56:04.845Z,14.67
2018-06-19T04:58:37.849Z,18.67
2018-06-19T05:01:10.876Z,15.60
2018-06-19T05:03:43.997Z,16.70
2018-06-19T05:06:17.143Z,17.47
2018-06-19T05:08:50.215Z,22.37
2018-06-19T05:11:23.678Z,16.10
2018-06-19T05:13:56.834Z,15.73
2018-06-19T05:16:30.205Z,19.33
2018-06-19T05:19:03.500Z,19.07
2018-06-19T05:21:36.851Z,14.70
2018-06-19T05:24:10.381Z,15.07
2018-06-19T05:26:45.328Z,15.80
2018-06-19T05:29:18.636Z,14.73
2018-06-19T05:31:51.866Z,20.37
2018-06-19T05:34:25.700Z,15.70
2018-06-19T05:36:59.051Z,16.87
2018-06-19T05:39:35.079Z,14.97
2018-06-19T05:42:08.359Z,18.30
2018-06-19T05:44:41.631Z,15.73
2018-06-19T05:47:15.116Z,18.37
2018-06-19T05:49:50.753Z,16.13
2018-06-19T05:52:23.922Z,19.27
2018-06-19T05:54:56.848Z,15.73
2018-06-19T05:57:29.786Z,10.60
2018-06-19T06:00:07.805Z,14.77
2018-06-19T06:02:40.860Z,15.37
2018-06-19T06:05:13.836Z,18.17
2018-06-19T06:07:47.236Z,19.03
2018-06-19T06:10:20.296Z,13.37
2018-06-19T06:12:53.198Z,18.70
2018-06-19T06:15:26.305Z,17.23
2018-06-19T06:17:59.315Z,14.07
2018-06-19T06:20:32.356Z,13.80
2018-06-19T06:23:05.417Z,18.83
2018-06-19T06:25:38.370Z,16.33
2018-06-19T06:28:11.510Z,18.47
2018-06-19T06:30:44.451Z,18.43
2018-06-19T06:33:17.461Z,16.73
2018-06-19T06:35:51.533Z,17.37
2018-06-19T06:38:25.646Z,16.50
2018-06-19T06:40:59.701Z,15.70
2018-06-19T06:43:33.695Z,16.43
2018-06-19T06:46:06.896Z,12.57
2018-06-19T06:48:40.818Z,15.80
2018-06-19T06:51:15.190Z,15.10
2018-06-19T06:53:48.331Z,12.03
2018-06-19T06:56:21.737Z,17.10
2018-06-19T06:58:54.839Z,14.03
2018-06-19T07:01:27.855Z,15.30
2018-06-19T07:04:00.767Z,13.17
2018-06-19T07:06:34.318Z,17.87
2018-06-19T07:09:09.414Z,15.33
2018-06-19T07:11:42.420Z,13.57
2018-06-19T07:14:15.381Z,11.70
2018-06-19T07:16:48.655Z,14.13
2018-06-19T07:19:22.164Z,14.30
2018-06-19T07:21:55.180Z,16.13
2018-06-19T07:24:28.309Z,14.03
2018-06-19T07:27:01.214Z,12.83
2018-06-19T07:29:34.156Z,13.30
2018-06-19T07:32:07.054Z,16.97
2018-06-19T07:34:39.985Z,14.23
2018-06-19T07:37:13.116Z,14.30
2018-06-19T07:39:46.156Z,12.37
2018-06-19T07:42:19.155Z,15.13
2018-06-19T07:44:52.219Z,14.13
2018-06-19T14:35:37.239Z,13.90
2018-06-19T14:38:10.933Z,16.63
2018-06-19T14:40:47.852Z,17.53
2018-06-19T14:43:21.910Z,13.33
2018-06-19T14:45:55.043Z,14.13
2018-06-19T14:48:28.111Z,14.77
2018-06-19T14:51:01.289Z,15.87
2018-06-19T14:53:35.052Z,15.67
2018-06-19T14:56:08.329Z,14.27
2018-06-19T14:58:42.645Z,14.90
2018-06-19T15:01:15.839Z,13.80
2018-06-19T15:03:49.207Z,11.23
2018-06-19T15:06:22.454Z,12.90
2018-06-19T15:08:55.430Z,11.50
2018-06-19T15:11:28.630Z,12.67
2018-06-19T15:14:01.622Z,10.40
2018-06-19T15:16:34.966Z,13.27
2018-06-19T15:19:08.117Z,10.03
2018-06-19T15:21:41.232Z,14.70
2018-06-19T15:24:14.209Z,10.57
2018-06-19T15:26:47.481Z,12.50
2018-06-19T15:29:20.430Z,13.90
2018-06-19T15:31:53.448Z,15.53
2018-06-19T15:34:27.410Z,14.90
2018-06-19T15:37:00.507Z,14.33
2018-06-19T15:39:33.574Z,15.83
2018-06-19T15:42:06.489Z,9.73
2018-06-19T15:44:39.616Z,10.67
2018-06-19T15:47:12.692Z,15.30
2018-06-19T15:49:45.750Z,14.13
2018-06-19T15:52:18.761Z,12.87
2018-06-19T15:54:51.852Z,14.07
2018-06-19T15:57:24.982Z,16.17
2018-06-19T15:59:58.105Z,10.47
2018-06-19T16:02:31.219Z,15.97
2018-06-19T16:05:04.276Z,16.87
2018-06-19T16:07:41.251Z,11.47
2018-06-19T16:10:14.284Z,12.80
2018-06-19T16:12:47.410Z,12.90
2018-06-19T16:15:20.398Z,13.20
2018-06-19T16:17:53.269Z,12.27
2018-06-19T16:20:26.278Z,13.50
2018-06-19T16:22:59.275Z,14.57
2018-06-19T16:25:32.210Z,14.33
2018-06-19T16:28:05.243Z,16.60
2018-06-19T16:30:38.394Z,12.23
2018-06-19T16:33:11.406Z,10.97
2018-06-19T16:35:44.470Z,11.07
2018-06-19T16:38:17.529Z,14.43
2018-06-19T16:40:50.805Z,15.00
2018-06-19T16:43:24.178Z,16.27
2018-06-19T16:45:57.252Z,10.07
2018-06-19T16:48:30.295Z,12.83
2018-06-19T16:51:03.360Z,12.97
2018-06-19T16:53:36.313Z,11.83
2018-06-19T16:56:09.306Z,13.70
2018-06-19T16:58:42.323Z,10.73
2018-06-19T17:01:15.288Z,14.97
2018-06-19T17:03:48.294Z,13.03
2018-06-19T17:06:21.237Z,9.93
2018-06-19T17:08:54.304Z,14.20
2018-06-19T17:11:27.401Z,13.70
2018-06-19T17:14:00.442Z,17.80
2018-06-19T17:16:33.559Z,15.13
2018-06-19T17:19:06.587Z,13.40
2018-06-19T17:21:39.693Z,14.30
2018-06-19T17:24:12.682Z,11.33
2018-06-19T17:26:45.667Z,11.93
2018-06-19T17:29:18.519Z,18.00
2018-06-19T17:31:51.484Z,14.80
2018-06-19T17:34:24.601Z,11.03
2018-06-19T17:36:57.794Z,10.53
2018-06-19T17:39:31.091Z,14.23
2018-06-19T17:42:04.198Z,11.70
2018-06-19T17:44:37.327Z,15.00
2018-06-19T17:47:11.277Z,12.47
2018-06-19T17:49:44.471Z,11.67
2018-06-19T17:52:17.568Z,18.53
2018-06-19T17:54:50.531Z,15.20
2018-06-19T17:57:23.466Z,15.13
2018-06-19T17:59:56.465Z,11.77
2018-06-19T18:02:29.514Z,12.90
2018-06-19T18:05:02.533Z,13.93
2018-06-19T18:07:35.597Z,11.57
2018-06-19T18:10:08.758Z,13.37
2018-06-19T18:12:41.704Z,16.10
2018-06-19T18:15:14.611Z,13.13
2018-06-19T18:17:47.546Z,13.23
2018-06-19T18:20:20.667Z,13.27
2018-06-19T18:22:53.811Z,18.10
2018-06-19T18:25:26.721Z,10.00
2018-06-19T18:27:59.699Z,13.53
2018-06-19T18:30:32.780Z,12.47
2018-06-19T18:33:05.833Z,11.97
2018-06-19T18:35:38.890Z,12.47
2018-06-19T18:38:11.883Z,9.50
2018-06-19T18:40:44.922Z,12.77
2018-06-19T18:43:17.921Z,15.17
2018-06-19T18:45:51.008Z,11.70
2018-06-19T18:48:24.009Z,15.23
2018-06-19T18:50:56.937Z,11.53
2018-06-19T18:53:30.175Z,12.20
2018-06-19T18:56:03.206Z,14.43
2018-06-19T18:58:36.409Z,11.07
2018-06-19T19:01:09.465Z,12.33
2018-06-19T19:03:44.152Z,14.47
2018-06-19T19:06:17.419Z,12.47
2018-06-19T19:08:50.491Z,8.97
2018-06-19T19:11:23.621Z,13.10
2018-06-19T19:13:56.657Z,10.40
2018-06-19T19:16:33.691Z,11.00
2018-06-19T19:19:08.917Z,10.93
2018-06-19T19:21:42.003Z,7.43
2018-06-19T19:24:15.130Z,10.57
2018-06-19T19:26:52.183Z,13.73
2018-06-19T19:29:29.387Z,12.40
2018-06-19T19:32:02.361Z,12.43
2018-06-19T19:34:35.502Z,12.23
2018-06-19T19:37:12.718Z,13.40
2018-06-19T19:39:45.782Z,11.13
2018-06-19T19:42:18.769Z,12.40
2018-06-19T19:44:51.891Z,10.30
2018-06-19T19:47:29.027Z,8.27
2018-06-19T19:50:02.283Z,13.43
2018-06-19T19:52:35.282Z,11.70
2018-06-19T19:55:08.444Z,9.93
2018-06-19T19:57:45.710Z,12.37
2018-06-19T20:00:21.659Z,9.27
2018-06-19T20:02:54.736Z,9.43
2018-06-19T20:05:28.471Z,12.27
2018-06-19T20:08:01.452Z,14.27
2018-06-19T20:10:34.328Z,14.03
2018-06-19T20:13:07.344Z,12.33
2018-06-19T20:15:40.543Z,9.60
2018-06-19T20:18:13.472Z,10.37
2018-06-19T20:20:47.081Z,8.73
2018-06-19T20:23:20.059Z,8.90
2018-06-19T20:25:53.065Z,11.67
2018-06-19T20:28:26.153Z,11.53
2018-06-19T20:30:59.418Z,9.27
2018-06-19T20:33:32.469Z,7.97
2018-06-19T20:36:05.686Z,12.53
2018-06-19T20:38:38.747Z,10.10
2018-06-19T20:41:11.837Z,9.83
2018-06-19T20:43:44.934Z,10.43
2018-06-19T20:46:18.055Z,10.80
2018-06-19T20:48:50.996Z,8.07
2018-06-19T20:51:23.964Z,8.80
2018-06-19T20:53:57.068Z,9.40
2018-06-19T20:56:30.666Z,10.70
2018-06-19T20:59:03.631Z,8.37
2018-06-19T21:01:36.598Z,11.63
2018-06-19T21:04:09.548Z,10.07
2018-06-19T21:06:43.449Z,5.57
2018-06-19T21:09:16.540Z,8.00
2018-06-19T21:11:49.589Z,7.17
2018-06-19T21:14:22.583Z,9.20
2018-06-19T21:16:55.490Z,7.63
2018-06-19T21:19:28.517Z,7.87
2018-06-19T21:22:01.567Z,8.47
2018-06-19T21:24:34.598Z,10.57
2018-06-19T21:27:07.568Z,9.37
2018-06-19T21:29:40.872Z,6.97
2018-06-19T21:32:13.816Z,10.53
2018-06-19T21:34:46.896Z,9.80
2018-06-19T21:37:19.799Z,10.60
2018-06-19T21:39:52.782Z,7.80
2018-06-19T21:42:25.671Z,12.07
2018-06-19T21:44:58.764Z,8.07
2018-06-19T21:47:32.006Z,8.83
2018-06-19T21:50:04.949Z,7.73
2018-06-19T21:52:37.914Z,6.67
2018-06-19T21:55:10.944Z,9.27
2018-06-19T21:57:43.988Z,8.10
2018-06-19T22:00:17.046Z,8.27
2018-06-19T22:02:50.084Z,10.53
2018-06-19T22:05:23.121Z,7.93
2018-06-19T22:07:56.471Z,8.60
2018-06-19T22:10:29.580Z,5.50
2018-06-19T22:13:03.614Z,10.30
2018-06-19T22:15:37.152Z,8.97
2018-06-19T22:18:12.827Z,6.63
2018-06-19T22:20:46.321Z,4.70
2018-06-19T22:23:19.291Z,7.67
2018-06-19T22:25:53.483Z,8.37
2018-06-19T22:28:28.429Z,6.97
2018-06-19T22:31:01.530Z,6.67
2018-06-19T22:33:34.660Z,5.53
2018-06-19T22:36:07.732Z,5.33
2018-06-19T22:38:43.996Z,7.10
2018-06-19T22:41:17.032Z,7.77
2018-06-19T22:43:50.058Z,8.50
2018-06-19T22:46:23.278Z,8.70
2018-06-19T22:48:56.337Z,5.03
2018-06-19T22:51:30.762Z,5.90
2018-06-19T22:54:04.081Z,6.37
2018-06-19T22:56:37.254Z,5.67
2018-06-19T22:59:10.341Z,6.00
2018-06-19T23:01:43.555Z,6.60
2018-06-19T23:04:16.652Z,8.20
2018-06-19T23:06:51.404Z,6.07
2018-06-19T23:09:24.507Z,6.13
2018-06-19T23:11:59.780Z,8.60
2018-06-19T23:14:34.074Z,6.10
2018-06-19T23:17:07.286Z,11.43
2018-06-19T23:19:40.374Z,6.10
2018-06-19T23:22:13.554Z,5.87
2018-06-19T23:24:46.655Z,8.00
2018-06-19T23:27:19.658Z,5.63
2018-06-19T23:29:52.705Z,6.80
2018-06-19T23:32:25.883Z,7.17
2018-06-19T23:34:58.999Z,6.27
2018-06-19T23:37:31.990Z,6.47
2018-06-19T23:40:05.111Z,7.10
2018-06-19T23:42:38.158Z,6.13
2018-06-19T23:45:11.228Z,5.90
2018-06-19T23:47:45.745Z,6.27
2018-06-19T23:50:18.718Z,7.33
2018-06-19T23:52:51.761Z,5.50
2018-06-19T23:55:24.731Z,7.97
2018-06-19T23:57:57.658Z,7.07
